METARってなに

METAR
定時飛行場実況気象通報式(”MÉTéorologique”、”Aviation”、”Régulière” )といいます(フランス語www)

現在の佐賀空港:RJFS 230000Z VRB02KT CAVOK 19/13 Q1012

上記の佐賀空港のMETAR解析
RJFS 230000Z VRB02KT CAVOK 19/13 Q1012
RJFS:佐賀空港
230000Z:23日00時00分(世界標準時なので、日本時間09:00)
VRB02KT:風向風速:風速が3kt未満で風向が定まらない(60度以上変動)するときはVRB(Variable)を使用 
この場合は風速は2ktです
CAVOK:キャブオッケーと読みます
CAVOK:以下の条件を満たすとCAVOKと報じます 卓越視程:10km以上 5000ftまたは最低扇形別高度の最大値のいずれか高い値未満に雲がなく、かつ重要な対流雲がない 天気略語表に該当する天気がない
ちなみにCAVOKとは Visibility,cloud and present weather better than prescribedvalues or conditionsの略語でございます(なげぇ・・・)
19/13:気温19度、露点13度
Q1012:気圧1012hpa(ヘクトパスカル)
です

+.゚(*´∀`)b゚+.゚ィィネ!!と感じたらシェア

コメントを残す

メールアドレスが公開されることはありません。 * が付いている欄は必須項目です

トラックバック URL

https://fly-tanuki.jp/archives/283/trackback

PAGE TOP